sensor_id;sensor_type;location;lat;lon;timestamp;P1;durP1;ratioP1;P2;durP2;ratioP2
31770;SDS011;18343;50.152;8.182;2022-08-04T00:00:59;4.28;;;2.53;;
31770;SDS011;18343;50.152;8.182;2022-08-04T00:03:32;10.43;;;2.50;;
31770;SDS011;18343;50.152;8.182;2022-08-04T00:06:10;3.22;;;2.60;;
31770;SDS011;18343;50.152;8.182;2022-08-04T00:08:46;3.53;;;2.42;;
31770;SDS011;18343;50.152;8.182;2022-08-04T00:11:19;2.53;;;2.33;;
31770;SDS011;18343;50.152;8.182;2022-08-04T00:13:50;4.40;;;2.47;;
31770;SDS011;18343;50.152;8.182;2022-08-04T00:16:23;5.45;;;2.13;;
31770;SDS011;18343;50.152;8.182;2022-08-04T00:18:54;3.10;;;2.33;;
31770;SDS011;18343;50.152;8.182;2022-08-04T00:21:27;2.60;;;2.15;;
31770;SDS011;18343;50.152;8.182;2022-08-04T00:23:58;8.63;;;2.53;;
31770;SDS011;18343;50.152;8.182;2022-08-04T00:26:27;2.80;;;2.10;;
31770;SDS011;18343;50.152;8.182;2022-08-04T00:28:55;3.72;;;2.47;;
31770;SDS011;18343;50.152;8.182;2022-08-04T00:31:23;2.50;;;2.30;;
31770;SDS011;18343;50.152;8.182;2022-08-04T00:33:51;3.83;;;2.10;;
31770;SDS011;18343;50.152;8.182;2022-08-04T00:36:19;2.80;;;2.30;;
31770;SDS011;18343;50.152;8.182;2022-08-04T00:38:47;3.22;;;2.92;;
31770;SDS011;18343;50.152;8.182;2022-08-04T00:41:20;4.65;;;2.30;;
31770;SDS011;18343;50.152;8.182;2022-08-04T00:44:02;3.17;;;2.40;;
31770;SDS011;18343;50.152;8.182;2022-08-04T00:46:53;2.30;;;2.10;;
31770;SDS011;18343;50.152;8.182;2022-08-04T00:52:40;2.75;;;2.20;;
31770;SDS011;18343;50.152;8.182;2022-08-04T00:58:45;2.53;;;2.22;;
31770;SDS011;18343;50.152;8.182;2022-08-04T01:04:23;2.88;;;2.25;;
31770;SDS011;18343;50.152;8.182;2022-08-04T01:07:13;2.80;;;2.35;;
31770;SDS011;18343;50.152;8.182;2022-08-04T01:10:06;3.47;;;2.20;;
31770;SDS011;18343;50.152;8.182;2022-08-04T01:12:50;4.15;;;2.35;;
31770;SDS011;18343;50.152;8.182;2022-08-04T01:15:44;3.70;;;2.60;;
31770;SDS011;18343;50.152;8.182;2022-08-04T01:18:27;3.60;;;2.50;;
31770;SDS011;18343;50.152;8.182;2022-08-04T01:21:10;6.72;;;3.20;;
31770;SDS011;18343;50.152;8.182;2022-08-04T01:24:02;2.78;;;2.47;;
31770;SDS011;18343;50.152;8.182;2022-08-04T01:27:10;2.60;;;2.40;;
31770;SDS011;18343;50.152;8.182;2022-08-04T01:29:54;4.22;;;2.40;;
31770;SDS011;18343;50.152;8.182;2022-08-04T01:32:24;2.80;;;2.60;;
31770;SDS011;18343;50.152;8.182;2022-08-04T01:35:01;4.63;;;2.70;;
31770;SDS011;18343;50.152;8.182;2022-08-04T01:37:38;2.60;;;2.35;;
31770;SDS011;18343;50.152;8.182;2022-08-04T01:40:19;3.13;;;2.38;;
31770;SDS011;18343;50.152;8.182;2022-08-04T01:42:48;3.28;;;2.42;;
31770;SDS011;18343;50.152;8.182;2022-08-04T01:45:21;5.15;;;2.67;;
31770;SDS011;18343;50.152;8.182;2022-08-04T01:47:51;3.00;;;2.70;;
31770;SDS011;18343;50.152;8.182;2022-08-04T01:50:20;4.65;;;2.70;;
31770;SDS011;18343;50.152;8.182;2022-08-04T01:52:51;3.85;;;2.42;;
31770;SDS011;18343;50.152;8.182;2022-08-04T01:55:19;6.15;;;2.55;;
31770;SDS011;18343;50.152;8.182;2022-08-04T01:57:48;5.93;;;2.53;;
31770;SDS011;18343;50.152;8.182;2022-08-04T02:00:18;3.33;;;2.75;;
31770;SDS011;18343;50.152;8.182;2022-08-04T02:02:50;3.35;;;2.63;;
31770;SDS011;18343;50.152;8.182;2022-08-04T02:05:19;5.18;;;2.47;;
31770;SDS011;18343;50.152;8.182;2022-08-04T02:07:50;4.68;;;3.00;;
31770;SDS011;18343;50.152;8.182;2022-08-04T02:10:42;4.55;;;2.88;;
31770;SDS011;18343;50.152;8.182;2022-08-04T02:13:20;2.42;;;2.22;;
31770;SDS011;18343;50.152;8.182;2022-08-04T02:16:01;3.17;;;2.42;;
31770;SDS011;18343;50.152;8.182;2022-08-04T02:18:36;2.88;;;2.60;;
31770;SDS011;18343;50.152;8.182;2022-08-04T02:21:13;3.83;;;2.58;;
31770;SDS011;18343;50.152;8.182;2022-08-04T02:23:46;2.83;;;2.47;;
31770;SDS011;18343;50.152;8.182;2022-08-04T02:26:19;2.90;;;2.63;;
31770;SDS011;18343;50.152;8.182;2022-08-04T02:28:49;2.97;;;2.70;;
31770;SDS011;18343;50.152;8.182;2022-08-04T02:31:29;4.32;;;2.35;;
31770;SDS011;18343;50.152;8.182;2022-08-04T02:34:00;3.00;;;2.70;;
31770;SDS011;18343;50.152;8.182;2022-08-04T02:36:34;5.55;;;3.15;;
31770;SDS011;18343;50.152;8.182;2022-08-04T02:39:05;4.35;;;2.85;;
31770;SDS011;18343;50.152;8.182;2022-08-04T02:41:35;3.55;;;2.70;;
31770;SDS011;18343;50.152;8.182;2022-08-04T02:44:04;6.20;;;2.63;;
31770;SDS011;18343;50.152;8.182;2022-08-04T02:46:36;6.95;;;2.70;;
31770;SDS011;18343;50.152;8.182;2022-08-04T02:49:05;2.70;;;2.50;;
31770;SDS011;18343;50.152;8.182;2022-08-04T02:51:36;7.63;;;2.90;;
31770;SDS011;18343;50.152;8.182;2022-08-04T02:54:10;3.13;;;2.83;;
31770;SDS011;18343;50.152;8.182;2022-08-04T02:56:40;3.95;;;3.00;;
31770;SDS011;18343;50.152;8.182;2022-08-04T02:59:11;4.18;;;2.70;;
31770;SDS011;18343;50.152;8.182;2022-08-04T03:01:40;4.70;;;2.90;;
31770;SDS011;18343;50.152;8.182;2022-08-04T03:04:22;4.38;;;2.92;;
31770;SDS011;18343;50.152;8.182;2022-08-04T03:07:17;6.05;;;3.22;;
31770;SDS011;18343;50.152;8.182;2022-08-04T03:10:12;4.70;;;2.90;;
31770;SDS011;18343;50.152;8.182;2022-08-04T03:13:34;6.75;;;3.15;;
31770;SDS011;18343;50.152;8.182;2022-08-04T03:17:06;4.05;;;2.75;;
31770;SDS011;18343;50.152;8.182;2022-08-04T03:23:59;5.32;;;2.72;;
31770;SDS011;18343;50.152;8.182;2022-08-04T03:30:05;3.10;;;2.80;;
31770;SDS011;18343;50.152;8.182;2022-08-04T03:46:24;3.38;;;3.08;;
31770;SDS011;18343;50.152;8.182;2022-08-04T03:52:41;3.80;;;2.72;;
31770;SDS011;18343;50.152;8.182;2022-08-04T03:55:40;6.53;;;3.17;;
31770;SDS011;18343;50.152;8.182;2022-08-04T04:01:54;3.28;;;2.90;;
31770;SDS011;18343;50.152;8.182;2022-08-04T04:08:25;4.18;;;3.00;;
31770;SDS011;18343;50.152;8.182;2022-08-04T04:11:17;3.90;;;2.58;;
31770;SDS011;18343;50.152;8.182;2022-08-04T04:14:39;5.47;;;3.03;;
31770;SDS011;18343;50.152;8.182;2022-08-04T04:17:36;3.72;;;3.13;;
31770;SDS011;18343;50.152;8.182;2022-08-04T04:24:20;5.45;;;3.10;;
31770;SDS011;18343;50.152;8.182;2022-08-04T04:27:23;3.30;;;3.00;;
31770;SDS011;18343;50.152;8.182;2022-08-04T04:30:06;4.25;;;3.10;;
31770;SDS011;18343;50.152;8.182;2022-08-04T04:32:42;4.90;;;3.40;;
31770;SDS011;18343;50.152;8.182;2022-08-04T04:35:40;7.95;;;3.28;;
31770;SDS011;18343;50.152;8.182;2022-08-04T04:38:28;4.22;;;3.35;;
31770;SDS011;18343;50.152;8.182;2022-08-04T04:41:15;4.30;;;3.10;;
31770;SDS011;18343;50.152;8.182;2022-08-04T04:44:22;4.90;;;2.83;;
31770;SDS011;18343;50.152;8.182;2022-08-04T04:47:23;4.72;;;3.33;;
31770;SDS011;18343;50.152;8.182;2022-08-04T04:50:08;3.85;;;3.15;;
31770;SDS011;18343;50.152;8.182;2022-08-04T04:52:43;6.63;;;3.47;;
31770;SDS011;18343;50.152;8.182;2022-08-04T04:55:18;5.35;;;2.97;;
31770;SDS011;18343;50.152;8.182;2022-08-04T04:57:51;3.97;;;3.28;;
31770;SDS011;18343;50.152;8.182;2022-08-04T05:00:23;3.80;;;3.07;;
31770;SDS011;18343;50.152;8.182;2022-08-04T05:03:08;4.72;;;3.40;;
31770;SDS011;18343;50.152;8.182;2022-08-04T05:09:11;5.15;;;3.45;;
31770;SDS011;18343;50.152;8.182;2022-08-04T05:12:19;4.05;;;3.30;;
31770;SDS011;18343;50.152;8.182;2022-08-04T05:15:09;6.75;;;3.35;;
31770;SDS011;18343;50.152;8.182;2022-08-04T05:17:38;3.85;;;3.28;;
31770;SDS011;18343;50.152;8.182;2022-08-04T05:20:10;12.52;;;3.60;;
31770;SDS011;18343;50.152;8.182;2022-08-04T05:22:42;8.45;;;3.53;;
31770;SDS011;18343;50.152;8.182;2022-08-04T05:25:13;4.30;;;3.53;;
31770;SDS011;18343;50.152;8.182;2022-08-04T05:27:50;5.18;;;3.00;;
31770;SDS011;18343;50.152;8.182;2022-08-04T05:30:27;8.32;;;3.80;;
31770;SDS011;18343;50.152;8.182;2022-08-04T05:33:01;3.15;;;2.85;;
31770;SDS011;18343;50.152;8.182;2022-08-04T05:35:34;7.18;;;3.67;;
31770;SDS011;18343;50.152;8.182;2022-08-04T05:38:06;5.50;;;3.47;;
31770;SDS011;18343;50.152;8.182;2022-08-04T05:40:37;4.68;;;3.55;;
31770;SDS011;18343;50.152;8.182;2022-08-04T05:43:06;5.70;;;3.38;;
31770;SDS011;18343;50.152;8.182;2022-08-04T05:45:34;7.43;;;3.28;;
31770;SDS011;18343;50.152;8.182;2022-08-04T05:48:01;7.15;;;3.40;;
31770;SDS011;18343;50.152;8.182;2022-08-04T05:50:31;4.72;;;3.50;;
31770;SDS011;18343;50.152;8.182;2022-08-04T05:52:59;4.35;;;3.45;;
31770;SDS011;18343;50.152;8.182;2022-08-04T05:55:28;4.60;;;3.00;;
31770;SDS011;18343;50.152;8.182;2022-08-04T05:57:56;7.40;;;4.00;;
31770;SDS011;18343;50.152;8.182;2022-08-04T06:00:27;4.10;;;3.70;;
31770;SDS011;18343;50.152;8.182;2022-08-04T06:02:55;6.28;;;3.88;;
31770;SDS011;18343;50.152;8.182;2022-08-04T06:05:24;7.93;;;3.65;;
31770;SDS011;18343;50.152;8.182;2022-08-04T06:07:52;5.20;;;3.80;;
31770;SDS011;18343;50.152;8.182;2022-08-04T06:13:43;4.68;;;3.50;;
31770;SDS011;18343;50.152;8.182;2022-08-04T06:16:19;4.13;;;3.58;;
31770;SDS011;18343;50.152;8.182;2022-08-04T06:18:50;6.82;;;4.40;;
31770;SDS011;18343;50.152;8.182;2022-08-04T06:21:21;4.20;;;3.80;;
31770;SDS011;18343;50.152;8.182;2022-08-04T06:23:53;8.45;;;4.00;;
31770;SDS011;18343;50.152;8.182;2022-08-04T06:26:22;5.47;;;4.03;;
31770;SDS011;18343;50.152;8.182;2022-08-04T06:28:53;6.40;;;3.75;;
31770;SDS011;18343;50.152;8.182;2022-08-04T06:31:23;4.57;;;3.65;;
31770;SDS011;18343;50.152;8.182;2022-08-04T06:34:11;4.40;;;3.50;;
31770;SDS011;18343;50.152;8.182;2022-08-04T06:36:42;6.55;;;3.70;;
31770;SDS011;18343;50.152;8.182;2022-08-04T06:39:10;5.47;;;4.00;;
31770;SDS011;18343;50.152;8.182;2022-08-04T06:41:38;6.43;;;3.67;;
31770;SDS011;18343;50.152;8.182;2022-08-04T06:44:07;4.93;;;3.80;;
31770;SDS011;18343;50.152;8.182;2022-08-04T06:46:39;5.63;;;3.92;;
31770;SDS011;18343;50.152;8.182;2022-08-04T06:49:08;8.73;;;3.80;;
31770;SDS011;18343;50.152;8.182;2022-08-04T06:51:36;13.25;;;4.18;;
31770;SDS011;18343;50.152;8.182;2022-08-04T06:54:04;6.63;;;3.85;;
31770;SDS011;18343;50.152;8.182;2022-08-04T06:56:32;6.97;;;3.95;;
31770;SDS011;18343;50.152;8.182;2022-08-04T06:59:02;6.10;;;3.83;;
31770;SDS011;18343;50.152;8.182;2022-08-04T07:01:31;7.55;;;4.07;;
31770;SDS011;18343;50.152;8.182;2022-08-04T07:04:02;9.57;;;4.13;;
31770;SDS011;18343;50.152;8.182;2022-08-04T07:06:30;4.55;;;3.50;;
31770;SDS011;18343;50.152;8.182;2022-08-04T07:08:58;6.10;;;3.45;;
31770;SDS011;18343;50.152;8.182;2022-08-04T07:11:27;5.75;;;3.33;;
31770;SDS011;18343;50.152;8.182;2022-08-04T07:13:55;5.60;;;3.10;;
31770;SDS011;18343;50.152;8.182;2022-08-04T07:16:24;4.10;;;3.40;;
31770;SDS011;18343;50.152;8.182;2022-08-04T07:18:52;8.50;;;3.40;;
31770;SDS011;18343;50.152;8.182;2022-08-04T07:21:21;3.67;;;3.22;;
31770;SDS011;18343;50.152;8.182;2022-08-04T07:23:51;6.70;;;3.13;;
31770;SDS011;18343;50.152;8.182;2022-08-04T07:26:18;7.57;;;3.30;;
31770;SDS011;18343;50.152;8.182;2022-08-04T07:28:51;7.03;;;3.25;;
31770;SDS011;18343;50.152;8.182;2022-08-04T07:31:18;5.68;;;2.90;;
31770;SDS011;18343;50.152;8.182;2022-08-04T07:33:48;5.95;;;2.88;;
31770;SDS011;18343;50.152;8.182;2022-08-04T07:36:16;4.05;;;3.05;;
31770;SDS011;18343;50.152;8.182;2022-08-04T07:38:45;5.70;;;3.40;;
31770;SDS011;18343;50.152;8.182;2022-08-04T07:41:12;6.88;;;3.13;;
31770;SDS011;18343;50.152;8.182;2022-08-04T07:43:45;5.25;;;3.22;;
31770;SDS011;18343;50.152;8.182;2022-08-04T07:46:13;3.42;;;3.13;;
31770;SDS011;18343;50.152;8.182;2022-08-04T07:48:40;6.57;;;3.30;;
31770;SDS011;18343;50.152;8.182;2022-08-04T07:51:09;5.55;;;3.35;;
31770;SDS011;18343;50.152;8.182;2022-08-04T07:53:37;3.50;;;3.20;;
31770;SDS011;18343;50.152;8.182;2022-08-04T07:56:07;3.17;;;2.85;;
31770;SDS011;18343;50.152;8.182;2022-08-04T07:58:35;4.00;;;3.08;;
31770;SDS011;18343;50.152;8.182;2022-08-04T08:01:02;3.85;;;2.80;;
31770;SDS011;18343;50.152;8.182;2022-08-04T08:03:29;8.27;;;2.97;;
31770;SDS011;18343;50.152;8.182;2022-08-04T08:05:57;6.22;;;2.92;;
31770;SDS011;18343;50.152;8.182;2022-08-04T08:08:24;3.95;;;3.03;;
31770;SDS011;18343;50.152;8.182;2022-08-04T08:10:51;5.65;;;2.75;;
31770;SDS011;18343;50.152;8.182;2022-08-04T08:13:21;3.72;;;3.10;;
31770;SDS011;18343;50.152;8.182;2022-08-04T08:15:50;3.92;;;3.10;;
31770;SDS011;18343;50.152;8.182;2022-08-04T08:18:18;4.68;;;3.03;;
31770;SDS011;18343;50.152;8.182;2022-08-04T08:20:45;4.43;;;3.42;;
31770;SDS011;18343;50.152;8.182;2022-08-04T08:23:13;3.38;;;3.08;;
31770;SDS011;18343;50.152;8.182;2022-08-04T08:25:40;3.67;;;2.92;;
31770;SDS011;18343;50.152;8.182;2022-08-04T08:28:07;5.25;;;3.17;;
31770;SDS011;18343;50.152;8.182;2022-08-04T08:30:37;3.78;;;3.22;;
31770;SDS011;18343;50.152;8.182;2022-08-04T08:33:06;5.65;;;2.97;;
31770;SDS011;18343;50.152;8.182;2022-08-04T08:35:40;7.07;;;3.40;;
31770;SDS011;18343;50.152;8.182;2022-08-04T08:38:16;9.02;;;3.55;;
31770;SDS011;18343;50.152;8.182;2022-08-04T08:40:51;4.60;;;3.25;;
31770;SDS011;18343;50.152;8.182;2022-08-04T08:43:32;6.22;;;3.28;;
31770;SDS011;18343;50.152;8.182;2022-08-04T08:46:27;7.93;;;3.38;;
31770;SDS011;18343;50.152;8.182;2022-08-04T08:52:51;3.28;;;2.97;;
31770;SDS011;18343;50.152;8.182;2022-08-04T08:55:39;4.95;;;3.10;;
31770;SDS011;18343;50.152;8.182;2022-08-04T08:58:30;6.03;;;3.28;;
31770;SDS011;18343;50.152;8.182;2022-08-04T09:01:11;3.75;;;2.92;;
31770;SDS011;18343;50.152;8.182;2022-08-04T09:07:20;3.55;;;2.95;;
31770;SDS011;18343;50.152;8.182;2022-08-04T09:10:05;6.43;;;2.97;;
31770;SDS011;18343;50.152;8.182;2022-08-04T09:12:44;4.40;;;2.78;;
31770;SDS011;18343;50.152;8.182;2022-08-04T09:15:21;3.15;;;2.38;;
31770;SDS011;18343;50.152;8.182;2022-08-04T09:18:00;3.60;;;3.08;;
31770;SDS011;18343;50.152;8.182;2022-08-04T09:20:36;4.57;;;2.90;;
31770;SDS011;18343;50.152;8.182;2022-08-04T09:23:19;5.38;;;3.08;;
31770;SDS011;18343;50.152;8.182;2022-08-04T09:26:10;4.43;;;2.67;;
31770;SDS011;18343;50.152;8.182;2022-08-04T09:28:46;4.55;;;2.83;;
31770;SDS011;18343;50.152;8.182;2022-08-04T09:31:27;4.78;;;3.03;;
31770;SDS011;18343;50.152;8.182;2022-08-04T09:34:03;3.95;;;3.10;;
31770;SDS011;18343;50.152;8.182;2022-08-04T09:36:45;3.10;;;2.80;;
31770;SDS011;18343;50.152;8.182;2022-08-04T09:39:21;3.03;;;2.67;;
31770;SDS011;18343;50.152;8.182;2022-08-04T09:41:59;5.97;;;2.97;;
31770;SDS011;18343;50.152;8.182;2022-08-04T09:44:39;3.95;;;2.85;;
31770;SDS011;18343;50.152;8.182;2022-08-04T09:47:19;2.97;;;2.70;;
31770;SDS011;18343;50.152;8.182;2022-08-04T09:49:57;3.95;;;2.67;;
31770;SDS011;18343;50.152;8.182;2022-08-04T09:52:43;3.45;;;2.60;;
31770;SDS011;18343;50.152;8.182;2022-08-04T09:55:22;5.57;;;2.92;;
31770;SDS011;18343;50.152;8.182;2022-08-04T09:58:08;5.43;;;3.03;;
31770;SDS011;18343;50.152;8.182;2022-08-04T10:00:48;6.10;;;2.97;;
31770;SDS011;18343;50.152;8.182;2022-08-04T10:03:22;8.50;;;3.35;;
31770;SDS011;18343;50.152;8.182;2022-08-04T10:05:56;7.60;;;3.47;;
31770;SDS011;18343;50.152;8.182;2022-08-04T10:08:53;9.07;;;3.20;;
31770;SDS011;18343;50.152;8.182;2022-08-04T10:11:36;7.38;;;3.47;;
31770;SDS011;18343;50.152;8.182;2022-08-04T10:14:22;8.65;;;3.47;;
31770;SDS011;18343;50.152;8.182;2022-08-04T10:17:08;7.28;;;3.40;;
31770;SDS011;18343;50.152;8.182;2022-08-04T10:19:52;10.63;;;3.38;;
31770;SDS011;18343;50.152;8.182;2022-08-04T10:22:30;5.53;;;2.72;;
31770;SDS011;18343;50.152;8.182;2022-08-04T10:25:07;8.05;;;3.15;;
31770;SDS011;18343;50.152;8.182;2022-08-04T10:27:46;5.70;;;3.25;;
31770;SDS011;18343;50.152;8.182;2022-08-04T10:30:17;9.60;;;3.67;;
31770;SDS011;18343;50.152;8.182;2022-08-04T10:32:48;6.53;;;3.47;;
31770;SDS011;18343;50.152;8.182;2022-08-04T10:35:24;12.75;;;3.47;;
31770;SDS011;18343;50.152;8.182;2022-08-04T10:37:59;5.20;;;2.80;;
31770;SDS011;18343;50.152;8.182;2022-08-04T10:40:39;8.48;;;3.60;;
31770;SDS011;18343;50.152;8.182;2022-08-04T10:43:18;7.97;;;3.13;;
31770;SDS011;18343;50.152;8.182;2022-08-04T10:45:59;7.43;;;3.47;;
31770;SDS011;18343;50.152;8.182;2022-08-04T10:51:08;5.10;;;3.10;;
31770;SDS011;18343;50.152;8.182;2022-08-04T10:53:45;7.75;;;3.17;;
31770;SDS011;18343;50.152;8.182;2022-08-04T10:56:18;4.72;;;3.00;;
31770;SDS011;18343;50.152;8.182;2022-08-04T10:58:55;9.70;;;2.78;;
31770;SDS011;18343;50.152;8.182;2022-08-04T11:01:49;8.38;;;2.83;;
31770;SDS011;18343;50.152;8.182;2022-08-04T11:04:40;6.03;;;2.90;;
31770;SDS011;18343;50.152;8.182;2022-08-04T11:07:31;6.68;;;3.17;;
31770;SDS011;18343;50.152;8.182;2022-08-04T11:10:20;6.68;;;2.45;;
31770;SDS011;18343;50.152;8.182;2022-08-04T11:13:12;3.72;;;2.67;;
31770;SDS011;18343;50.152;8.182;2022-08-04T11:16:01;8.63;;;2.75;;
31770;SDS011;18343;50.152;8.182;2022-08-04T11:18:57;16.02;;;2.45;;
31770;SDS011;18343;50.152;8.182;2022-08-04T11:21:52;3.40;;;2.28;;
31770;SDS011;18343;50.152;8.182;2022-08-04T11:24:49;8.13;;;2.88;;
31770;SDS011;18343;50.152;8.182;2022-08-04T11:27:42;4.43;;;2.95;;
31770;SDS011;18343;50.152;8.182;2022-08-04T11:30:42;4.95;;;2.00;;
31770;SDS011;18343;50.152;8.182;2022-08-04T11:33:35;5.53;;;2.45;;
31770;SDS011;18343;50.152;8.182;2022-08-04T11:36:33;3.63;;;2.20;;
31770;SDS011;18343;50.152;8.182;2022-08-04T11:39:28;3.80;;;2.10;;
31770;SDS011;18343;50.152;8.182;2022-08-04T11:42:20;3.35;;;2.13;;
31770;SDS011;18343;50.152;8.182;2022-08-04T11:45:10;3.38;;;2.53;;
31770;SDS011;18343;50.152;8.182;2022-08-04T11:48:04;5.30;;;2.28;;
31770;SDS011;18343;50.152;8.182;2022-08-04T11:50:55;3.42;;;1.95;;
31770;SDS011;18343;50.152;8.182;2022-08-04T11:53:45;8.45;;;2.40;;
31770;SDS011;18343;50.152;8.182;2022-08-04T11:56:32;3.33;;;2.30;;
31770;SDS011;18343;50.152;8.182;2022-08-04T11:59:18;2.10;;;1.90;;
31770;SDS011;18343;50.152;8.182;2022-08-04T12:02:15;2.97;;;1.70;;
31770;SDS011;18343;50.152;8.182;2022-08-04T12:05:29;2.38;;;1.60;;
31770;SDS011;18343;50.152;8.182;2022-08-04T12:08:22;3.17;;;1.70;;
31770;SDS011;18343;50.152;8.182;2022-08-04T12:11:21;4.15;;;1.85;;
31770;SDS011;18343;50.152;8.182;2022-08-04T12:14:21;3.05;;;1.40;;
31770;SDS011;18343;50.152;8.182;2022-08-04T12:17:23;1.73;;;1.38;;
31770;SDS011;18343;50.152;8.182;2022-08-04T12:20:16;1.77;;;1.50;;
31770;SDS011;18343;50.152;8.182;2022-08-04T12:23:07;9.25;;;1.70;;
31770;SDS011;18343;50.152;8.182;2022-08-04T12:26:05;4.65;;;1.70;;
31770;SDS011;18343;50.152;8.182;2022-08-04T12:28:57;2.17;;;1.80;;
31770;SDS011;18343;50.152;8.182;2022-08-04T12:31:47;2.75;;;1.63;;
31770;SDS011;18343;50.152;8.182;2022-08-04T12:34:38;5.30;;;2.00;;
31770;SDS011;18343;50.152;8.182;2022-08-04T12:37:33;6.32;;;1.65;;
31770;SDS011;18343;50.152;8.182;2022-08-04T12:40:35;4.90;;;1.67;;
31770;SDS011;18343;50.152;8.182;2022-08-04T12:43:30;2.20;;;1.58;;
31770;SDS011;18343;50.152;8.182;2022-08-04T12:46:23;1.80;;;1.70;;
31770;SDS011;18343;50.152;8.182;2022-08-04T12:49:12;6.97;;;2.10;;
31770;SDS011;18343;50.152;8.182;2022-08-04T12:51:59;1.63;;;1.52;;
31770;SDS011;18343;50.152;8.182;2022-08-04T12:54:50;4.68;;;1.65;;
31770;SDS011;18343;50.152;8.182;2022-08-04T12:57:40;3.63;;;1.60;;
31770;SDS011;18343;50.152;8.182;2022-08-04T13:00:28;2.42;;;2.03;;
31770;SDS011;18343;50.152;8.182;2022-08-04T13:03:19;4.53;;;2.00;;
31770;SDS011;18343;50.152;8.182;2022-08-04T13:06:13;3.17;;;2.05;;
31770;SDS011;18343;50.152;8.182;2022-08-04T13:09:04;5.93;;;1.90;;
31770;SDS011;18343;50.152;8.182;2022-08-04T13:11:54;1.98;;;1.77;;
31770;SDS011;18343;50.152;8.182;2022-08-04T13:14:47;8.82;;;1.77;;
31770;SDS011;18343;50.152;8.182;2022-08-04T13:17:44;2.40;;;1.77;;
31770;SDS011;18343;50.152;8.182;2022-08-04T13:20:36;2.90;;;1.88;;
31770;SDS011;18343;50.152;8.182;2022-08-04T13:23:24;2.10;;;1.80;;
31770;SDS011;18343;50.152;8.182;2022-08-04T13:26:11;6.03;;;2.00;;
31770;SDS011;18343;50.152;8.182;2022-08-04T13:29:00;2.10;;;1.92;;
31770;SDS011;18343;50.152;8.182;2022-08-04T13:34:40;5.43;;;2.10;;
31770;SDS011;18343;50.152;8.182;2022-08-04T13:37:29;3.22;;;2.13;;
31770;SDS011;18343;50.152;8.182;2022-08-04T13:40:20;6.78;;;2.08;;
31770;SDS011;18343;50.152;8.182;2022-08-04T13:43:12;3.70;;;1.98;;
31770;SDS011;18343;50.152;8.182;2022-08-04T13:46:12;2.17;;;1.80;;
31770;SDS011;18343;50.152;8.182;2022-08-04T13:49:06;4.88;;;1.95;;
31770;SDS011;18343;50.152;8.182;2022-08-04T13:51:56;2.80;;;1.90;;
31770;SDS011;18343;50.152;8.182;2022-08-04T13:54:45;2.22;;;1.63;;
31770;SDS011;18343;50.152;8.182;2022-08-04T13:57:42;3.20;;;2.13;;
31770;SDS011;18343;50.152;8.182;2022-08-04T14:00:38;3.75;;;2.03;;
31770;SDS011;18343;50.152;8.182;2022-08-04T14:03:30;3.42;;;1.90;;
31770;SDS011;18343;50.152;8.182;2022-08-04T14:06:22;4.65;;;2.15;;
31770;SDS011;18343;50.152;8.182;2022-08-04T14:09:11;2.40;;;1.80;;
31770;SDS011;18343;50.152;8.182;2022-08-04T14:12:05;3.38;;;2.10;;
31770;SDS011;18343;50.152;8.182;2022-08-04T14:14:53;4.72;;;1.95;;
31770;SDS011;18343;50.152;8.182;2022-08-04T14:17:39;1.95;;;1.58;;
31770;SDS011;18343;50.152;8.182;2022-08-04T14:20:25;2.03;;;1.70;;
31770;SDS011;18343;50.152;8.182;2022-08-04T17:58:13;7.30;;;2.00;;
31770;SDS011;18343;50.152;8.182;2022-08-04T18:01:01;5.32;;;1.83;;
31770;SDS011;18343;50.152;8.182;2022-08-04T18:03:48;5.45;;;1.73;;
31770;SDS011;18343;50.152;8.182;2022-08-04T18:06:33;8.77;;;1.90;;
31770;SDS011;18343;50.152;8.182;2022-08-04T18:09:23;10.27;;;2.20;;
31770;SDS011;18343;50.152;8.182;2022-08-04T18:12:11;9.93;;;2.80;;
31770;SDS011;18343;50.152;8.182;2022-08-04T18:15:20;3.80;;;2.25;;
31770;SDS011;18343;50.152;8.182;2022-08-04T18:18:14;6.97;;;2.17;;
31770;SDS011;18343;50.152;8.182;2022-08-04T18:21:04;7.43;;;2.08;;
31770;SDS011;18343;50.152;8.182;2022-08-04T18:23:50;3.70;;;2.50;;
31770;SDS011;18343;50.152;8.182;2022-08-04T18:26:36;6.65;;;2.38;;
31770;SDS011;18343;50.152;8.182;2022-08-04T18:29:22;5.57;;;2.10;;
31770;SDS011;18343;50.152;8.182;2022-08-04T18:32:10;4.57;;;2.05;;
31770;SDS011;18343;50.152;8.182;2022-08-04T18:34:55;9.20;;;2.05;;
31770;SDS011;18343;50.152;8.182;2022-08-04T18:37:41;4.85;;;2.00;;
31770;SDS011;18343;50.152;8.182;2022-08-04T18:40:27;6.80;;;1.92;;
31770;SDS011;18343;50.152;8.182;2022-08-04T18:43:13;2.65;;;1.92;;
31770;SDS011;18343;50.152;8.182;2022-08-04T18:45:59;3.78;;;1.95;;
31770;SDS011;18343;50.152;8.182;2022-08-04T18:48:46;4.25;;;2.03;;
31770;SDS011;18343;50.152;8.182;2022-08-04T18:51:32;9.43;;;2.40;;
31770;SDS011;18343;50.152;8.182;2022-08-04T18:54:18;5.03;;;2.05;;
31770;SDS011;18343;50.152;8.182;2022-08-04T18:57:04;9.93;;;2.40;;
31770;SDS011;18343;50.152;8.182;2022-08-04T18:59:50;4.28;;;2.60;;
31770;SDS011;18343;50.152;8.182;2022-08-04T19:02:38;6.45;;;2.00;;
31770;SDS011;18343;50.152;8.182;2022-08-04T19:05:25;7.93;;;2.38;;
31770;SDS011;18343;50.152;8.182;2022-08-04T19:08:10;6.53;;;1.98;;
31770;SDS011;18343;50.152;8.182;2022-08-04T19:10:57;5.25;;;2.65;;
31770;SDS011;18343;50.152;8.182;2022-08-04T19:13:43;5.95;;;2.25;;
31770;SDS011;18343;50.152;8.182;2022-08-04T19:16:30;6.35;;;2.30;;
31770;SDS011;18343;50.152;8.182;2022-08-04T19:19:17;6.75;;;2.45;;
31770;SDS011;18343;50.152;8.182;2022-08-04T19:22:04;7.00;;;2.58;;
31770;SDS011;18343;50.152;8.182;2022-08-04T19:24:50;9.32;;;2.35;;
31770;SDS011;18343;50.152;8.182;2022-08-04T19:27:35;6.35;;;2.47;;
31770;SDS011;18343;50.152;8.182;2022-08-04T19:30:21;4.25;;;2.30;;
31770;SDS011;18343;50.152;8.182;2022-08-04T19:33:07;7.68;;;2.40;;
31770;SDS011;18343;50.152;8.182;2022-08-04T19:35:53;8.32;;;2.38;;
31770;SDS011;18343;50.152;8.182;2022-08-04T19:38:40;7.55;;;2.67;;
31770;SDS011;18343;50.152;8.182;2022-08-04T19:41:26;9.77;;;2.83;;
31770;SDS011;18343;50.152;8.182;2022-08-04T19:44:14;11.13;;;2.70;;
31770;SDS011;18343;50.152;8.182;2022-08-04T19:47:00;7.38;;;2.13;;
31770;SDS011;18343;50.152;8.182;2022-08-04T19:49:46;6.47;;;2.85;;
31770;SDS011;18343;50.152;8.182;2022-08-04T19:52:33;7.32;;;2.42;;
31770;SDS011;18343;50.152;8.182;2022-08-04T19:55:21;4.25;;;2.33;;
31770;SDS011;18343;50.152;8.182;2022-08-04T19:58:08;6.25;;;2.30;;
31770;SDS011;18343;50.152;8.182;2022-08-04T20:00:53;15.25;;;2.60;;
31770;SDS011;18343;50.152;8.182;2022-08-04T20:03:39;7.88;;;2.65;;
31770;SDS011;18343;50.152;8.182;2022-08-04T20:06:26;6.75;;;2.67;;
31770;SDS011;18343;50.152;8.182;2022-08-04T20:09:11;13.25;;;2.85;;
31770;SDS011;18343;50.152;8.182;2022-08-04T20:11:58;8.48;;;2.40;;
31770;SDS011;18343;50.152;8.182;2022-08-04T20:14:44;5.30;;;2.13;;
31770;SDS011;18343;50.152;8.182;2022-08-04T20:17:30;8.20;;;2.90;;
31770;SDS011;18343;50.152;8.182;2022-08-04T20:20:17;7.75;;;2.50;;
31770;SDS011;18343;50.152;8.182;2022-08-04T20:23:03;7.60;;;2.97;;
31770;SDS011;18343;50.152;8.182;2022-08-04T20:25:48;10.10;;;2.83;;
31770;SDS011;18343;50.152;8.182;2022-08-04T20:28:35;7.07;;;2.95;;
31770;SDS011;18343;50.152;8.182;2022-08-04T20:31:21;13.45;;;3.05;;
31770;SDS011;18343;50.152;8.182;2022-08-04T20:34:07;6.47;;;2.50;;
31770;SDS011;18343;50.152;8.182;2022-08-04T20:36:53;6.70;;;2.38;;
31770;SDS011;18343;50.152;8.182;2022-08-04T20:39:39;8.45;;;2.50;;
31770;SDS011;18343;50.152;8.182;2022-08-04T20:42:25;4.72;;;2.45;;
31770;SDS011;18343;50.152;8.182;2022-08-04T20:45:16;6.05;;;2.70;;
31770;SDS011;18343;50.152;8.182;2022-08-04T20:48:02;9.48;;;2.55;;
31770;SDS011;18343;50.152;8.182;2022-08-04T20:50:48;10.52;;;2.78;;
31770;SDS011;18343;50.152;8.182;2022-08-04T20:53:34;6.40;;;2.83;;